createdAt,value
2019-04-11T00:01:33.901Z,8.20
2019-04-11T00:03:55.001Z,8.20
2019-04-11T00:06:25.644Z,8.20
2019-04-11T00:08:56.562Z,8.20
2019-04-11T00:11:26.391Z,8.10
2019-04-11T00:13:56.178Z,8.10
2019-04-11T00:16:25.986Z,8.10
2019-04-11T00:18:56.842Z,8.10
2019-04-11T00:21:28.866Z,8.10
2019-04-11T00:23:58.931Z,8.10
2019-04-11T00:26:30.556Z,8.10
2019-04-11T00:29:01.671Z,8.20
2019-04-11T00:31:32.619Z,8.20
2019-04-11T00:34:02.624Z,8.20
2019-04-11T00:36:34.541Z,8.20
2019-04-11T00:39:08.019Z,8.20
2019-04-11T00:41:37.813Z,8.20
2019-04-11T00:44:08.364Z,8.10
2019-04-11T00:46:38.399Z,8.10
2019-04-11T00:49:08.283Z,8.10
2019-04-11T00:51:38.144Z,8.10
2019-04-11T00:54:08.780Z,8.10
2019-04-11T00:56:38.583Z,8.10
2019-04-11T00:59:08.373Z,8.10
2019-04-11T01:01:38.257Z,8.10
2019-04-11T01:04:08.058Z,8.20
2019-04-11T01:06:38.446Z,8.20
2019-04-11T01:09:10.058Z,8.20
2019-04-11T01:11:40.427Z,8.20
2019-04-11T01:14:10.341Z,8.20
2019-04-11T01:16:45.106Z,8.20
2019-04-11T01:19:14.962Z,8.20
2019-04-11T01:21:44.736Z,8.20
2019-04-11T01:24:15.549Z,8.30
2019-04-11T01:26:45.555Z,8.30
2019-04-11T01:29:15.496Z,8.30
2019-04-11T01:31:46.831Z,8.30
2019-04-11T01:34:16.635Z,8.30
2019-04-11T01:36:46.976Z,8.40
2019-04-11T01:42:10.832Z,8.40
2019-04-11T01:44:41.072Z,8.40
2019-04-11T01:47:12.930Z,8.40
2019-04-11T01:49:44.091Z,8.40
2019-04-11T01:52:14.012Z,8.40
2019-04-11T01:54:43.906Z,8.50
2019-04-11T01:57:13.913Z,8.50
2019-04-11T01:59:43.814Z,8.50
2019-04-11T02:02:30.671Z,8.50
2019-04-11T02:05:08.378Z,8.50
2019-04-11T02:07:38.588Z,8.60
2019-04-11T02:10:08.607Z,8.50
2019-04-11T02:12:39.387Z,8.60
2019-04-11T02:15:10.374Z,8.60
2019-04-11T02:17:41.089Z,8.60
2019-04-11T02:20:11.027Z,8.60
2019-04-11T02:22:48.776Z,8.60
2019-04-11T02:25:26.331Z,8.60
2019-04-11T02:27:58.047Z,8.60
2019-04-11T02:30:30.008Z,8.60
2019-04-11T02:33:00.390Z,8.60
2019-04-11T02:35:31.068Z,8.70
2019-04-11T02:38:02.818Z,8.70
2019-04-11T02:40:32.894Z,8.70
2019-04-11T02:43:04.682Z,8.70
2019-04-11T02:45:45.252Z,8.60
2019-04-11T02:48:06.041Z,8.60
2019-04-11T02:50:38.678Z,8.60
2019-04-11T02:53:09.471Z,8.60
2019-04-11T02:55:41.713Z,8.60
2019-04-11T02:58:12.491Z,8.60
2019-04-11T03:00:44.598Z,8.70
2019-04-11T03:03:15.008Z,8.70
2019-04-11T03:05:46.826Z,8.70
2019-04-11T03:08:19.191Z,8.60
2019-04-11T03:10:49.114Z,8.60
2019-04-11T03:13:21.069Z,8.70
2019-04-11T03:16:05.368Z,8.70
2019-04-11T03:18:40.946Z,8.70
2019-04-11T03:20:57.668Z,8.60
2019-04-11T03:23:27.279Z,8.60
2019-04-11T03:25:58.324Z,8.60
2019-04-11T03:28:31.325Z,8.70
2019-04-11T03:31:37.419Z,8.60
2019-04-11T03:38:55.447Z,8.60
2019-04-11T03:41:25.352Z,8.50
2019-04-11T03:43:50.947Z,8.50
2019-04-11T03:46:24.848Z,8.50
2019-04-11T03:48:55.699Z,8.50
2019-04-11T03:51:14.884Z,8.50
2019-04-11T03:53:45.036Z,8.50
2019-04-11T03:56:16.240Z,8.50
2019-04-11T03:58:48.164Z,8.50
2019-04-11T04:01:22.157Z,8.50
2019-04-11T04:03:51.826Z,8.40
2019-04-11T04:06:23.296Z,8.40
2019-04-11T04:08:55.290Z,8.40
2019-04-11T04:11:27.473Z,8.40
2019-04-11T04:14:17.183Z,8.40
2019-04-11T04:17:01.591Z,8.40
2019-04-11T04:19:32.854Z,8.40
2019-04-11T04:22:11.009Z,8.40
2019-04-11T04:24:42.692Z,8.40
2019-04-11T04:27:13.227Z,8.40
2019-04-11T04:29:46.786Z,8.50
2019-04-11T04:32:16.206Z,8.50
2019-04-11T04:34:46.446Z,8.50
2019-04-11T04:37:18.118Z,8.50
2019-04-11T04:39:50.191Z,8.50
2019-04-11T04:42:27.226Z,8.50
2019-04-11T04:44:51.425Z,8.60
2019-04-11T04:47:30.255Z,8.60
2019-04-11T04:49:54.211Z,8.60
2019-04-11T04:52:25.241Z,8.60
2019-04-11T04:54:57.741Z,8.60
2019-04-11T04:57:29.179Z,8.60
2019-04-11T04:59:59.905Z,8.60
2019-04-11T05:02:30.571Z,8.60
2019-04-11T05:05:03.670Z,8.60
2019-04-11T05:07:37.429Z,8.60
2019-04-11T05:10:06.616Z,8.50
2019-04-11T05:12:36.577Z,8.50
2019-04-11T05:15:07.928Z,8.50
2019-04-11T05:17:38.703Z,8.50
2019-04-11T05:20:09.960Z,8.50
2019-04-11T05:22:39.767Z,8.50
2019-04-11T05:25:10.636Z,8.50
2019-04-11T05:27:40.540Z,8.50
2019-04-11T05:30:11.254Z,8.50
2019-04-11T05:32:41.746Z,8.50
2019-04-11T05:35:11.768Z,8.50
2019-04-11T05:37:41.525Z,8.50
2019-04-11T05:40:12.680Z,8.50
2019-04-11T05:42:42.482Z,8.40
2019-04-11T05:45:18.246Z,8.40
2019-04-11T05:47:46.158Z,8.30
2019-04-11T05:50:20.148Z,8.30
2019-04-11T05:52:50.406Z,8.30
2019-04-11T05:55:20.569Z,8.30
2019-04-11T05:57:50.307Z,8.30
2019-04-11T06:00:21.678Z,8.40
2019-04-11T06:02:55.894Z,8.40
2019-04-11T06:05:31.837Z,8.40
2019-04-11T06:08:00.269Z,8.50
2019-04-11T06:10:50.443Z,8.50
2019-04-11T06:13:22.673Z,8.50
2019-04-11T06:16:01.367Z,8.50
2019-04-11T06:18:35.354Z,8.50
2019-04-11T06:21:07.508Z,8.50
2019-04-11T06:23:39.191Z,8.50
2019-04-11T06:26:26.800Z,8.50
2019-04-11T06:28:59.098Z,8.50
2019-04-11T06:31:47.539Z,8.50
2019-04-11T06:34:17.554Z,8.60
2019-04-11T06:37:05.668Z,8.60
2019-04-11T06:39:37.793Z,8.60
2019-04-11T06:42:27.510Z,8.60
2019-04-11T06:44:58.847Z,8.60
2019-04-11T06:47:39.279Z,8.60
2019-04-11T06:50:23.044Z,8.60
2019-04-11T06:52:53.366Z,8.70
2019-04-11T06:55:37.080Z,8.60
2019-04-11T06:58:08.576Z,8.70
2019-04-11T07:00:41.007Z,8.70
2019-04-11T07:03:19.859Z,8.70
2019-04-11T07:05:43.823Z,8.70
2019-04-11T07:08:14.472Z,8.70
2019-04-11T07:10:46.741Z,8.70
2019-04-11T07:13:30.509Z,8.80
2019-04-11T07:16:00.491Z,8.80
2019-04-11T07:18:35.707Z,8.80
2019-04-11T07:21:08.394Z,8.80
2019-04-11T07:24:08.983Z,8.80
2019-04-11T07:26:41.507Z,8.80
2019-04-11T07:29:13.099Z,8.70
2019-04-11T07:31:44.440Z,8.70
2019-04-11T07:34:36.159Z,8.70
2019-04-11T07:37:26.266Z,8.70
2019-04-11T07:40:15.915Z,8.80
2019-04-11T07:42:59.347Z,8.80
2019-04-11T07:45:30.700Z,8.90
2019-04-11T07:48:17.332Z,8.90
2019-04-11T07:50:48.664Z,8.90
2019-04-11T07:53:20.147Z,8.90
2019-04-11T07:55:51.012Z,8.90
2019-04-11T07:58:23.788Z,9.00
2019-04-11T08:01:01.502Z,9.00
2019-04-11T08:03:37.935Z,8.90
2019-04-11T08:06:26.443Z,8.80
2019-04-11T08:09:10.011Z,8.70
2019-04-11T08:11:42.166Z,8.70
2019-04-11T08:14:16.406Z,8.70
2019-04-11T08:17:04.035Z,8.70
2019-04-11T08:19:48.999Z,8.70
2019-04-11T08:22:39.193Z,8.70
2019-04-11T08:25:26.268Z,8.70
2019-04-11T08:30:49.392Z,8.70
2019-04-11T08:33:20.833Z,8.70
2019-04-11T08:36:09.344Z,8.80
2019-04-11T08:38:40.386Z,8.80
2019-04-11T08:41:17.813Z,8.80
2019-04-11T08:43:47.754Z,8.80
2019-04-11T08:46:37.461Z,8.80
2019-04-11T08:49:15.293Z,8.90
2019-04-11T08:51:45.866Z,8.90
2019-04-11T08:54:33.847Z,8.90
2019-04-11T08:57:03.843Z,8.90
2019-04-11T08:59:38.341Z,8.80
2019-04-11T09:02:08.677Z,8.80
2019-04-11T09:04:41.223Z,8.80
2019-04-11T09:07:11.783Z,8.80
2019-04-11T09:09:59.814Z,8.80
2019-04-11T09:12:30.608Z,8.80
2019-04-11T09:15:08.591Z,8.80
2019-04-11T09:20:40.037Z,8.90
2019-04-11T09:23:11.242Z,8.90
2019-04-11T09:25:55.532Z,8.90
2019-04-11T09:28:29.106Z,9.00
2019-04-11T09:31:01.156Z,9.00
2019-04-11T09:33:53.123Z,9.00
2019-04-11T09:36:34.910Z,9.00
2019-04-11T09:39:21.369Z,9.10
2019-04-11T09:42:11.677Z,9.10
2019-04-11T09:44:49.228Z,9.10
2019-04-11T09:47:36.939Z,9.10
2019-04-11T09:50:25.076Z,9.10
2019-04-11T09:52:56.456Z,9.20
2019-04-11T09:55:44.339Z,9.20
2019-04-11T09:58:25.356Z,9.20
2019-04-11T10:00:56.853Z,9.20
2019-04-11T10:03:28.248Z,9.30
2019-04-11T10:06:19.348Z,9.30
2019-04-11T10:08:51.237Z,9.30
2019-04-11T10:11:38.005Z,9.40
2019-04-11T10:14:09.533Z,9.40
2019-04-11T10:16:42.204Z,9.40
2019-04-11T10:19:13.818Z,9.50
2019-04-11T10:21:54.785Z,9.60
2019-04-11T10:24:41.486Z,9.60
2019-04-11T10:27:12.845Z,9.70
2019-04-11T10:29:50.505Z,9.70
2019-04-11T10:32:27.797Z,9.80
2019-04-11T10:37:53.029Z,9.90
2019-04-11T10:40:41.966Z,9.90
2019-04-11T10:43:11.992Z,9.90
2019-04-11T10:45:46.896Z,10.00
2019-04-11T10:48:17.942Z,10.00
2019-04-11T10:51:06.655Z,10.10
2019-04-11T10:53:37.388Z,10.10
2019-04-11T10:56:22.215Z,10.20
2019-04-11T10:58:53.379Z,10.20
2019-04-11T11:01:25.605Z,10.30
2019-04-11T11:03:58.958Z,10.40
2019-04-11T11:06:33.253Z,10.40
2019-04-11T11:09:04.626Z,10.50
2019-04-11T11:11:37.125Z,10.60
2019-04-11T11:14:12.351Z,10.60
2019-04-11T11:16:47.086Z,10.60
2019-04-11T11:19:51.460Z,10.60
2019-04-11T11:22:08.377Z,10.60
2019-04-11T11:24:56.229Z,10.70
2019-04-11T11:27:26.539Z,10.70
2019-04-11T11:30:03.170Z,10.70
2019-04-11T11:32:31.829Z,10.80
2019-04-11T11:35:05.322Z,10.80
2019-04-11T11:37:37.469Z,10.90
2019-04-11T11:40:25.901Z,10.90
2019-04-11T11:42:57.314Z,10.90
2019-04-11T11:45:29.766Z,11.00
2019-04-11T11:48:01.466Z,11.00
2019-04-11T11:50:34.495Z,11.10
2019-04-11T11:53:18.475Z,11.10
2019-04-11T11:55:49.602Z,11.00
2019-04-11T11:58:37.551Z,11.00
2019-04-11T12:01:09.335Z,11.10
2019-04-11T12:03:41.051Z,11.10
2019-04-11T12:06:10.848Z,11.10
2019-04-11T12:08:58.885Z,11.00
2019-04-11T12:11:28.699Z,11.00
2019-04-11T12:14:16.542Z,11.10
2019-04-11T12:16:55.005Z,11.10
2019-04-11T12:19:26.894Z,11.10
2019-04-11T12:21:58.218Z,11.10
2019-04-11T12:24:46.564Z,11.10
2019-04-11T12:27:18.479Z,11.10
2019-04-11T12:30:02.703Z,11.10
2019-04-11T12:32:40.965Z,11.20
2019-04-11T12:35:25.772Z,11.20
2019-04-11T12:37:57.908Z,11.40
2019-04-11T12:40:46.555Z,11.40
2019-04-11T12:43:17.404Z,11.40
2019-04-11T12:45:48.788Z,11.50
2019-04-11T12:48:19.248Z,11.60
2019-04-11T12:51:01.024Z,11.70
2019-04-11T12:53:30.770Z,11.70
2019-04-11T12:56:18.579Z,11.80
2019-04-11T12:58:50.168Z,11.80
2019-04-11T13:01:30.454Z,11.90
2019-04-11T13:04:07.797Z,11.90
2019-04-11T13:06:39.177Z,11.80
2019-04-11T13:09:26.251Z,11.90
2019-04-11T13:11:57.631Z,11.90
2019-04-11T13:14:45.311Z,11.90
2019-04-11T13:17:17.179Z,11.90
2019-04-11T13:19:48.495Z,12.00
2019-04-11T13:22:29.332Z,12.00
2019-04-11T13:25:18.894Z,12.00
2019-04-11T13:27:50.248Z,12.00
2019-04-11T13:33:21.257Z,12.00
2019-04-11T13:35:59.873Z,12.10
2019-04-11T13:38:34.382Z,12.10
2019-04-11T13:41:21.212Z,12.10
2019-04-11T13:43:52.614Z,12.10
2019-04-11T13:46:23.961Z,12.10
2019-04-11T13:49:01.234Z,12.20
2019-04-11T13:51:32.553Z,12.30
2019-04-11T13:54:06.918Z,12.30
2019-04-11T13:56:54.577Z,12.30
2019-04-11T13:59:35.026Z,12.30
2019-04-11T14:02:17.129Z,12.40
2019-04-11T14:04:54.617Z,12.30
2019-04-11T14:07:27.575Z,12.30
2019-04-11T14:09:59.120Z,12.20
2019-04-11T14:15:06.049Z,12.00
2019-04-11T14:17:43.413Z,11.90
2019-04-11T14:23:04.310Z,11.90
2019-04-11T14:25:48.318Z,11.80
2019-04-11T14:28:19.687Z,11.70
2019-04-11T14:30:54.242Z,11.70
2019-04-11T14:33:27.181Z,11.70
2019-04-11T14:36:15.113Z,11.70
2019-04-11T14:38:51.800Z,11.60
2019-04-11T14:41:34.429Z,11.60
2019-04-11T14:44:05.809Z,11.50
2019-04-11T14:46:55.667Z,11.50
2019-04-11T14:49:27.147Z,11.50
2019-04-11T14:52:07.240Z,11.40
2019-04-11T14:54:41.606Z,11.40
2019-04-11T14:57:12.992Z,11.40
2019-04-11T14:59:54.148Z,11.40
2019-04-11T15:02:42.356Z,11.40
2019-04-11T15:05:14.373Z,11.50
2019-04-11T15:07:46.137Z,11.40
2019-04-11T15:10:20.232Z,11.40
2019-04-11T15:12:50.781Z,11.40
2019-04-11T15:15:31.593Z,11.40
2019-04-11T15:18:03.308Z,11.40
2019-04-11T15:20:54.628Z,11.40
2019-04-11T15:23:19.677Z,11.40
2019-04-11T15:26:09.138Z,11.40
2019-04-11T15:28:43.701Z,11.40
2019-04-11T15:31:39.191Z,11.50
2019-04-11T15:34:07.031Z,11.50
2019-04-11T15:36:39.866Z,11.50
2019-04-11T15:39:14.102Z,11.50
2019-04-11T15:41:48.428Z,11.40
2019-04-11T15:44:37.737Z,11.40
2019-04-11T15:47:19.079Z,11.50
2019-04-11T15:50:03.289Z,11.50
2019-04-11T15:52:34.694Z,11.50
2019-04-11T15:55:19.611Z,11.40
2019-04-11T15:57:49.476Z,11.30
2019-04-11T16:00:44.471Z,11.30
2019-04-11T16:03:14.288Z,11.30
2019-04-11T16:05:45.647Z,11.30
2019-04-11T16:08:26.077Z,11.30
2019-04-11T16:11:02.914Z,11.30
2019-04-11T16:13:33.472Z,11.30
2019-04-11T16:16:11.327Z,11.30
2019-04-11T16:18:54.658Z,11.30
2019-04-11T16:21:35.062Z,11.30
2019-04-11T16:24:27.355Z,11.30
2019-04-11T16:27:14.300Z,11.30
2019-04-11T16:29:45.659Z,11.20
2019-04-11T16:32:16.855Z,11.00
2019-04-11T16:34:49.114Z,11.00
2019-04-11T16:37:19.938Z,11.00
2019-04-11T16:40:08.491Z,11.00
2019-04-11T16:42:40.102Z,11.00
2019-04-11T16:45:12.101Z,11.00
2019-04-11T16:47:53.775Z,11.00
2019-04-11T16:50:23.935Z,11.00
2019-04-11T16:52:53.730Z,11.00
2019-04-11T16:55:23.525Z,11.00
2019-04-11T16:57:53.326Z,10.90
2019-04-11T17:00:24.211Z,10.90
2019-04-11T17:02:54.941Z,10.80
2019-04-11T17:05:26.840Z,10.80
2019-04-11T17:08:01.389Z,10.80
2019-04-11T17:10:49.158Z,10.80
2019-04-11T17:13:18.947Z,10.80
2019-04-11T17:15:48.826Z,10.80
2019-04-11T17:18:19.039Z,10.80
2019-04-11T17:20:49.061Z,10.80
2019-04-11T17:23:18.870Z,10.80
2019-04-11T17:25:52.977Z,10.80
2019-04-11T17:28:22.639Z,10.80
2019-04-11T17:30:55.001Z,10.80
2019-04-11T17:33:22.901Z,10.80
2019-04-11T17:35:52.693Z,10.80
2019-04-11T17:38:22.509Z,10.80
2019-04-11T17:40:52.316Z,10.80
2019-04-11T17:43:22.173Z,10.70
2019-04-11T17:45:51.973Z,10.70
2019-04-11T17:48:21.764Z,10.70
2019-04-11T17:50:51.588Z,10.70
2019-04-11T17:53:22.664Z,10.70
2019-04-11T17:55:54.261Z,10.70
2019-04-11T17:58:27.017Z,10.70
2019-04-11T18:00:57.154Z,10.60
2019-04-11T18:03:26.931Z,10.60
2019-04-11T18:05:56.718Z,10.60
2019-04-11T18:08:26.537Z,10.60
2019-04-11T18:10:56.688Z,10.50
2019-04-11T18:13:30.576Z,10.50
2019-04-11T18:16:00.708Z,10.40
2019-04-11T18:18:29.369Z,10.40
2019-04-11T18:20:59.178Z,10.40
2019-04-11T18:23:29.507Z,10.30
2019-04-11T18:25:59.290Z,10.30
2019-04-11T18:28:29.086Z,10.20
2019-04-11T18:30:58.908Z,10.20
2019-04-11T18:33:31.439Z,10.20
2019-04-11T18:36:02.366Z,10.20
2019-04-11T18:38:32.671Z,10.10
2019-04-11T18:41:02.615Z,10.00
2019-04-11T18:43:32.408Z,9.90
2019-04-11T18:46:02.227Z,9.90
2019-04-11T18:48:32.007Z,9.90
2019-04-11T18:51:01.807Z,9.90
2019-04-11T18:53:31.615Z,9.90
2019-04-11T18:56:01.734Z,9.80
2019-04-11T18:58:33.684Z,9.80
2019-04-11T19:01:03.537Z,9.70
2019-04-11T19:03:36.362Z,9.70
2019-04-11T19:06:04.805Z,9.70
2019-04-11T19:08:34.629Z,9.70
2019-04-11T19:11:04.465Z,9.70
2019-04-11T19:13:34.292Z,9.70
2019-04-11T19:16:04.069Z,9.60
2019-04-11T19:18:33.867Z,9.60
2019-04-11T19:21:03.748Z,9.60
2019-04-11T19:23:33.554Z,9.60
2019-04-11T19:26:03.365Z,9.50
2019-04-11T19:28:33.137Z,9.50
2019-04-11T19:31:02.933Z,9.40
2019-04-11T19:33:34.812Z,9.40
2019-04-11T19:36:04.748Z,9.30
2019-04-11T19:38:37.080Z,9.30
2019-04-11T19:41:06.875Z,9.20
2019-04-11T19:43:36.654Z,9.20
2019-04-11T19:46:06.434Z,9.20
2019-04-11T19:48:37.443Z,9.20
2019-04-11T19:51:07.195Z,9.20
2019-04-11T19:53:36.989Z,9.10
2019-04-11T19:56:08.383Z,9.00
2019-04-11T19:58:39.709Z,8.90
2019-04-11T20:01:09.516Z,8.90
2019-04-11T20:03:39.308Z,8.80
2019-04-11T20:06:10.104Z,8.80
2019-04-11T20:08:39.892Z,8.90
2019-04-11T20:11:09.673Z,8.90
2019-04-11T20:13:39.455Z,8.90
2019-04-11T20:16:12.283Z,9.00
2019-04-11T20:18:50.195Z,9.00
2019-04-11T20:21:24.412Z,9.00
2019-04-11T20:23:54.289Z,9.00
2019-04-11T20:26:24.097Z,9.00
2019-04-11T20:28:53.908Z,9.00
2019-04-11T20:31:23.743Z,9.10
2019-04-11T20:33:53.464Z,9.10
2019-04-11T20:36:32.806Z,9.10
2019-04-11T20:38:54.758Z,9.10
2019-04-11T20:41:25.922Z,9.10
2019-04-11T20:43:56.915Z,9.00
2019-04-11T20:46:29.109Z,9.00
2019-04-11T20:48:58.519Z,9.00
2019-04-11T20:51:28.375Z,8.90
2019-04-11T20:53:58.124Z,8.90
2019-04-11T20:56:28.023Z,8.90
2019-04-11T20:58:57.801Z,8.90
2019-04-11T21:01:27.575Z,9.00
2019-04-11T21:04:00.107Z,9.00
2019-04-11T21:06:31.603Z,9.00
2019-04-11T21:09:02.895Z,9.00
2019-04-11T21:11:36.208Z,9.00
2019-04-11T21:14:04.593Z,9.00
2019-04-11T21:16:35.190Z,9.00
2019-04-11T21:19:05.003Z,9.00
2019-04-11T21:21:34.770Z,8.90
2019-04-11T21:24:04.533Z,8.90
2019-04-11T21:26:34.350Z,8.90
2019-04-11T21:29:04.179Z,8.90
2019-04-11T21:31:33.972Z,8.90
2019-04-11T21:34:03.728Z,8.90
2019-04-11T21:36:35.110Z,8.90
2019-04-11T21:39:06.915Z,8.90
2019-04-11T21:41:38.305Z,8.90
2019-04-11T21:44:08.022Z,9.00
2019-04-11T21:46:41.627Z,9.00
2019-04-11T21:49:10.713Z,8.90
2019-04-11T21:51:42.323Z,8.90
2019-04-11T21:54:14.768Z,8.90
2019-04-11T21:56:43.346Z,8.80
2019-04-11T21:59:13.151Z,8.80
2019-04-11T22:01:43.872Z,8.80
2019-04-11T22:04:13.689Z,8.80
2019-04-11T22:06:43.570Z,8.80
2019-04-11T22:09:13.427Z,8.70
2019-04-11T22:11:43.210Z,8.70
2019-04-11T22:14:14.032Z,8.70
2019-04-11T22:16:45.115Z,8.70
2019-04-11T22:19:15.166Z,8.80
2019-04-11T22:21:45.943Z,8.80
2019-04-11T22:24:15.871Z,8.80
2019-04-11T22:26:50.068Z,8.80
2019-04-11T22:29:17.134Z,8.90
2019-04-11T22:31:46.955Z,8.80
2019-04-11T22:34:18.344Z,8.80
2019-04-11T22:36:49.125Z,8.90
2019-04-11T22:39:18.934Z,8.90
2019-04-11T22:41:48.730Z,8.90
2019-04-11T22:44:18.491Z,8.90
2019-04-11T22:46:48.274Z,8.90
2019-04-11T22:49:18.112Z,8.90
2019-04-11T22:51:47.881Z,8.90
2019-04-11T22:54:17.720Z,9.00
2019-04-11T22:56:47.467Z,9.00
2019-04-11T22:59:17.265Z,9.00
2019-04-11T23:01:47.600Z,9.00
2019-04-11T23:04:29.664Z,8.90
2019-04-11T23:06:59.419Z,8.90
2019-04-11T23:09:29.215Z,8.90
2019-04-11T23:11:58.997Z,8.90
2019-04-11T23:14:28.795Z,8.90
2019-04-11T23:16:58.587Z,8.90
2019-04-11T23:19:29.355Z,8.90
2019-04-11T23:21:59.143Z,8.90
2019-04-11T23:24:28.900Z,8.90
2019-04-11T23:26:58.781Z,8.90
2019-04-11T23:29:28.574Z,8.90
2019-04-11T23:31:58.403Z,8.90
2019-04-11T23:34:28.181Z,8.90
2019-04-11T23:36:57.914Z,8.90
2019-04-11T23:39:27.704Z,8.90
2019-04-11T23:41:57.504Z,8.90
2019-04-11T23:44:27.265Z,8.90
2019-04-11T23:46:57.053Z,8.80
2019-04-11T23:49:26.832Z,8.80
2019-04-11T23:51:56.593Z,8.80
2019-04-11T23:54:28.966Z,8.80
2019-04-11T23:57:00.560Z,8.80
2019-04-11T23:59:32.009Z,8.80
